Time,TemperatureF,DewpointF,PressureIn,WindDirection,WindDirectionDegrees,WindSpeedMPH,WindSpeedGustMPH,Humidity,HourlyPrecipIn,Conditions,Clouds,dailyrainin,SolarRadiationWatts/m^2,SoftwareType,DateUTC
2013-04-28 00:00:00,42.0,13.0,-100.00,SSE,158,3.0,4.0,31,-99.99,,,0.00,0.000000,,2013-04-28 06:00:00,
2013-04-28 01:00:00,40.0,-99.9,-100.00,North,-999,-999.0,-999.0,-999,-99.99,,,0.00,,,2013-04-28 07:00:00,
2013-04-28 01:52:00,40.0,-99.9,-100.00,North,-999,-999.0,-999.0,-999,-99.99,,,0.00,,,2013-04-28 07:52:00,
2013-04-28 02:00:00,39.0,14.0,-100.00,SSE,152,2.0,4.0,35,-99.99,,,0.00,0.000000,,2013-04-28 08:00:00,
2013-04-28 03:00:00,40.0,13.0,-100.00,SSE,160,3.0,4.0,32,-99.99,,,-99.99,0.000000,,2013-04-28 09:00:00,
2013-04-28 04:00:00,39.0,13.0,-100.00,SSE,159,3.0,3.0,34,-99.99,,,0.00,0.000000,,2013-04-28 10:00:00,
2013-04-28 05:00:00,40.0,14.0,-100.00,SSE,158,3.0,3.0,33,-99.99,,,0.00,0.000000,,2013-04-28 11:00:00,
2013-04-28 06:00:00,39.0,11.0,-100.00,SSE,160,2.0,3.0,30,-99.99,,,0.00,0.000000,,2013-04-28 12:00:00,
2013-04-28 07:00:00,39.0,13.0,-100.00,SSE,160,3.0,3.0,33,-99.99,,,0.00,8.200000,,2013-04-28 13:00:00,
2013-04-28 08:00:00,45.0,17.0,-100.00,SSE,148,1.0,3.0,32,-99.99,,,0.00,83.300003,,2013-04-28 14:00:00,
2013-04-28 09:00:00,51.0,14.0,-100.00,ENE,69,1.0,3.0,23,-99.99,,,0.00,195.699997,,2013-04-28 15:00:00,
2013-04-28 10:00:00,53.0,12.0,-100.00,North,349,1.0,4.0,19,-99.99,,,0.00,306.500000,,2013-04-28 16:00:00,
2013-04-28 11:00:00,55.0,11.0,-100.00,NNW,346,2.0,6.0,17,-99.99,,,-99.99,475.299988,,2013-04-28 17:00:00,
2013-04-28 12:00:00,57.0,13.0,-100.00,NNW,342,2.0,7.0,17,-99.99,,,-99.99,814.700012,,2013-04-28 18:00:00,
2013-04-28 13:00:00,59.0,11.0,-100.00,NNW,348,2.0,6.0,15,-99.99,,,-99.99,,,2013-04-28 19:00:00,
2013-04-28 14:00:00,58.0,9.0,-100.00,North,359,2.0,9.0,14,-99.99,,,-99.99,,,2013-04-28 20:00:00,
2013-04-28 15:00:00,59.0,8.0,-100.00,NNE,16,2.0,5.0,13,-99.99,,,-99.99,991.799988,,2013-04-28 21:00:00,
2013-04-28 16:00:00,61.0,10.0,-100.00,NNE,14,2.0,6.0,13,-99.99,,,-99.99,866.000000,,2013-04-28 22:00:00,
2013-04-28 17:00:00,60.0,7.0,-100.00,NNE,12,2.0,6.0,12,-99.99,,,-99.99,656.599976,,2013-04-28 23:00:00,
2013-04-28 18:00:00,59.0,-99.9,-100.00,North,-999,-999.0,-999.0,-999,-99.99,,,-99.99,,,2013-04-29 00:00:00,
2013-04-28 18:52:00,59.0,-99.9,-100.00,North,-999,-999.0,-999.0,-999,-99.99,,,-99.99,,,2013-04-29 00:52:00,
2013-04-28 19:00:00,56.0,6.0,-100.00,ENE,58,1.0,3.0,13,-99.99,,,-99.99,90.699997,,2013-04-29 01:00:00,
2013-04-28 20:00:00,49.0,8.0,-100.00,SE,134,1.0,3.0,18,-99.99,,,-99.99,12.800000,,2013-04-29 02:00:00,
2013-04-28 21:00:00,48.0,9.0,-100.00,SSE,154,2.0,4.0,20,-99.99,,,-99.99,0.000000,,2013-04-29 03:00:00,
2013-04-28 22:00:00,46.0,8.0,-100.00,SSE,148,2.0,3.0,21,-99.99,,,0.00,0.000000,,2013-04-29 04:00:00,
2013-04-28 23:00:00,45.0,9.0,-100.00,SSE,154,2.0,4.0,22,-99.99,,,-99.99,0.000000,,2013-04-29 05:00:00,